Crab Orchard Estates, Illinois
Current Conditions -  °F | °C
As of 1:52 PM on Friday 19 Dec 2014 (Local Time) from KMDH Reporting Station
Overcast Overcast  
Wind Chill: 33°   Ceiling: 3500
Heat Index: 37°   Visibility: 10mi
Dew Point: 28°   Wind: 5mph
Humidity: 70%   Direction: 350°N
Pressure: 30.29"   Gusts: NA
Location:  37.7248°N, 89.197°W
Report Text: KMDH 191952Z 35004KT 10SM OVC035 03/M02 A3029 RMK AO2 SLP261 T00281022
Loading
Personal Weather Stations






























Interactive Weather Map New forecast layout! Learn more

10-Day Weather Forecast

Advertisements
Track Severe Weather on mobile